Time;durP1;ratioP1;P1;durP2;ratioP2;P2;SDS_P1;SDS_P2;PMS_P1;PMS_P2;Temp;Humidity;BMP_temperature;BMP_pressure;BME280_temperature;BME280_humidity;BME280_pressure;Samples;Min_cycle;Max_cycle;Signal;HPM_P1;HPM_P2
2023/04/18 00:01:27;;;;;;;2.07;1.97;;;;;;;;;;6308893;28;20298;-73
2023/04/18 00:04:33;;;;;;;1.93;1.83;;;;;;;;;;6307748;28;20296;-74
2023/04/18 00:07:38;;;;;;;5.23;2.17;;;;;;;;;;6308668;28;20288;-74
2023/04/18 00:10:43;;;;;;;3.27;2.30;;;;;;;;;;6308626;28;20297;-73
2023/04/18 00:13:50;;;;;;;4.40;2.20;;;;;;;;;;6307818;28;20299;-73
2023/04/18 00:16:56;;;;;;;2.43;2.20;;;;;;;;;;6308793;28;20304;-72
2023/04/18 00:20:03;;;;;;;2.20;2.20;;;;;;;;;;6308113;28;20296;-73
2023/04/18 00:23:12;;;;;;;2.53;2.17;;;;;;;;;;6308288;28;20298;-72
2023/04/18 00:26:18;;;;;;;4.90;1.90;;;;;;;;;;6333503;28;20485;-72
2023/04/18 00:29:26;;;;;;;2.40;2.20;;;;;;;;;;6333310;28;20287;-72
2023/04/18 00:32:31;;;;;;;2.90;2.70;;;;;;;;;;6315940;28;20308;-73
2023/04/18 00:35:37;;;;;;;2.10;2.00;;;;;;;;;;6315005;28;20297;-73
2023/04/18 00:38:42;;;;;;;2.30;2.03;;;;;;;;;;6333009;28;20290;-73
2023/04/18 00:41:47;;;;;;;2.03;1.93;;;;;;;;;;6315369;28;20304;-73
2023/04/18 00:44:54;;;;;;;2.63;2.03;;;;;;;;;;6333078;28;20322;-72
2023/04/18 00:47:59;;;;;;;1.90;1.90;;;;;;;;;;6314893;28;20463;-74
2023/04/18 00:51:05;;;;;;;2.07;2.03;;;;;;;;;;6337638;28;20286;-73
2023/04/18 00:54:12;;;;;;;3.50;2.27;;;;;;;;;;6323626;28;20303;-73
2023/04/18 00:57:17;;;;;;;2.23;2.13;;;;;;;;;;6323583;28;20338;-73
2023/04/18 01:00:25;;;;;;;2.33;2.23;;;;;;;;;;6341783;28;20301;-73
2023/04/18 01:03:30;;;;;;;2.40;2.20;;;;;;;;;;6351708;22;20294;-74
2023/04/18 01:06:36;;;;;;;1.90;1.87;;;;;;;;;;6341425;28;20286;-74
2023/04/18 01:09:41;;;;;;;2.10;2.00;;;;;;;;;;6340501;28;20307;-75
2023/04/18 01:12:46;;;;;;;2.20;2.20;;;;;;;;;;6327154;28;20557;-73
2023/04/18 01:15:54;;;;;;;5.63;2.00;;;;;;;;;;6323799;28;20410;-75
2023/04/18 01:18:59;;;;;;;1.83;1.73;;;;;;;;;;6323584;28;20434;-75
2023/04/18 01:22:05;;;;;;;2.30;2.20;;;;;;;;;;6341938;28;20290;-74
2023/04/18 01:25:13;;;;;;;2.70;1.80;;;;;;;;;;6341786;28;20298;-74
2023/04/18 01:28:21;;;;;;;1.87;1.87;;;;;;;;;;6340423;28;20437;-75
2023/04/18 01:31:26;;;;;;;5.50;2.20;;;;;;;;;;6341166;28;20291;-75
2023/04/18 01:34:32;;;;;;;2.30;2.20;;;;;;;;;;6341909;28;20614;-76
2023/04/18 01:37:37;;;;;;;2.33;2.13;;;;;;;;;;6341668;28;20311;-75
2023/04/18 01:40:45;;;;;;;2.93;1.93;;;;;;;;;;6341620;28;20646;-75
2023/04/18 01:43:52;;;;;;;2.40;2.30;;;;;;;;;;6340403;28;20301;-75
2023/04/18 01:46:57;;;;;;;1.90;1.80;;;;;;;;;;6340801;28;20341;-74
2023/04/18 01:50:03;;;;;;;2.30;2.10;;;;;;;;;;6341483;28;20318;-74
2023/04/18 01:53:08;;;;;;;1.90;1.90;;;;;;;;;;6340322;28;20291;-74
2023/04/18 01:56:15;;;;;;;1.93;1.93;;;;;;;;;;6341872;28;20293;-76
2023/04/18 01:59:20;;;;;;;2.03;2.03;;;;;;;;;;6340385;28;20310;-75
2023/04/18 02:02:25;;;;;;;2.00;1.80;;;;;;;;;;6337505;28;20304;-74
2023/04/18 02:05:30;;;;;;;3.70;2.13;;;;;;;;;;6337513;28;20303;-74
2023/04/18 02:08:36;;;;;;;1.87;1.77;;;;;;;;;;6337225;28;20286;-74
2023/04/18 02:11:43;;;;;;;1.93;1.90;;;;;;;;;;6330306;28;20604;-74
2023/04/18 02:14:52;;;;;;;2.10;2.10;;;;;;;;;;6320620;28;20567;-76
2023/04/18 02:17:58;;;;;;;1.90;1.90;;;;;;;;;;6337435;28;20293;-74
2023/04/18 02:21:04;;;;;;;2.90;2.10;;;;;;;;;;6337852;28;20294;-75
2023/04/18 02:24:09;;;;;;;2.07;2.00;;;;;;;;;;6336846;28;20309;-75
2023/04/18 02:27:16;;;;;;;2.13;2.00;;;;;;;;;;6319835;28;20282;-74
2023/04/18 02:30:21;;;;;;;2.23;2.23;;;;;;;;;;6336795;28;20309;-74
2023/04/18 02:33:26;;;;;;;2.40;2.30;;;;;;;;;;6336620;28;20561;-75
2023/04/18 02:36:32;;;;;;;2.43;2.00;;;;;;;;;;6336580;28;20292;-75
2023/04/18 02:39:37;;;;;;;3.30;1.80;;;;;;;;;;6336833;28;20305;-76
2023/04/18 02:42:43;;;;;;;2.03;2.03;;;;;;;;;;6318980;28;20264;-76
2023/04/18 02:45:51;;;;;;;2.00;1.90;;;;;;;;;;6318859;28;20309;-74
2023/04/18 02:48:56;;;;;;;1.90;1.90;;;;;;;;;;6318461;28;20286;-75
2023/04/18 02:52:03;;;;;;;1.73;1.70;;;;;;;;;;6318782;28;20295;-74
2023/04/18 02:55:10;;;;;;;2.30;2.07;;;;;;;;;;6318622;28;20285;-73
2023/04/18 02:58:20;;;;;;;1.80;1.80;;;;;;;;;;6318036;28;20429;-74
2023/04/18 03:01:28;;;;;;;1.90;1.80;;;;;;;;;;6336316;28;20293;-75
2023/04/18 03:04:45;;;;;;;2.07;1.97;;;;;;;;;;6327265;28;20301;-74
2023/04/18 03:07:50;;;;;;;1.87;1.80;;;;;;;;;;6335414;28;20582;-73
2023/04/18 03:10:56;;;;;;;1.77;1.77;;;;;;;;;;6341717;28;20289;-75
2023/04/18 03:14:05;;;;;;;1.83;1.83;;;;;;;;;;6342380;28;20304;-73
2023/04/18 03:17:19;;;;;;;2.03;2.03;;;;;;;;;;6343280;28;20286;-75
2023/04/18 03:20:26;;;;;;;2.20;2.20;;;;;;;;;;6343450;28;20307;-75
2023/04/18 03:23:31;;;;;;;1.83;1.83;;;;;;;;;;6335300;28;20286;-75
2023/04/18 03:26:39;;;;;;;1.67;1.67;;;;;;;;;;6317720;28;20297;-73
2023/04/18 03:29:46;;;;;;;2.33;2.13;;;;;;;;;;6317191;28;20290;-74
2023/04/18 03:32:52;;;;;;;2.10;2.00;;;;;;;;;;6317634;28;20293;-74
2023/04/18 03:35:58;;;;;;;5.40;1.83;;;;;;;;;;6337871;28;20611;-75
2023/04/18 03:39:03;;;;;;;1.90;1.90;;;;;;;;;;6342668;28;20296;-75
2023/04/18 03:42:09;;;;;;;2.33;2.03;;;;;;;;;;6360798;28;20289;-75
2023/04/18 03:45:18;;;;;;;3.07;1.60;;;;;;;;;;6342868;28;20301;-73
2023/04/18 03:48:24;;;;;;;1.90;1.80;;;;;;;;;;6342131;28;20296;-75
2023/04/18 03:51:35;;;;;;;3.13;1.90;;;;;;;;;;6342465;28;20295;-75
2023/04/18 03:54:41;;;;;;;2.20;2.03;;;;;;;;;;6358117;28;20291;-73
2023/04/18 03:57:46;;;;;;;2.57;2.10;;;;;;;;;;6358665;28;20273;-75
2023/04/18 04:01:01;;;;;;;1.97;1.90;;;;;;;;;;6341664;28;20292;-74
2023/04/18 04:04:07;;;;;;;3.43;2.10;;;;;;;;;;6320431;28;20283;-75
2023/04/18 04:07:13;;;;;;;1.90;1.90;;;;;;;;;;6316817;28;20295;-74
2023/04/18 04:10:19;;;;;;;2.10;2.10;;;;;;;;;;6311842;28;20303;-75
2023/04/18 04:13:26;;;;;;;2.43;2.13;;;;;;;;;;6292011;28;20300;-75
2023/04/18 04:16:33;;;;;;;2.37;2.27;;;;;;;;;;6292022;28;20303;-75
2023/04/18 04:19:39;;;;;;;2.33;2.23;;;;;;;;;;6291508;28;20377;-74
2023/04/18 04:22:52;;;;;;;2.43;2.43;;;;;;;;;;6291759;28;20622;-74
2023/04/18 04:26:01;;;;;;;2.07;2.07;;;;;;;;;;6290491;28;20305;-75
2023/04/18 04:29:15;;;;;;;3.70;1.90;;;;;;;;;;6291389;28;20297;-74
2023/04/18 04:32:26;;;;;;;2.00;1.93;;;;;;;;;;6291653;28;20297;-76
2023/04/18 04:35:33;;;;;;;2.40;2.20;;;;;;;;;;6290734;28;20291;-75
2023/04/18 04:38:39;;;;;;;1.90;1.90;;;;;;;;;;6309270;28;20287;-75
2023/04/18 04:41:46;;;;;;;1.97;1.87;;;;;;;;;;6291430;28;20291;-75
2023/04/18 04:44:54;;;;;;;1.90;1.90;;;;;;;;;;6291306;28;20292;-75
2023/04/18 04:48:01;;;;;;;1.90;1.80;;;;;;;;;;6291288;28;20293;-75
2023/04/18 04:51:06;;;;;;;2.00;2.00;;;;;;;;;;6290410;28;20297;-75
2023/04/18 04:54:12;;;;;;;1.80;1.70;;;;;;;;;;6290786;28;20320;-75
2023/04/18 04:57:18;;;;;;;2.23;2.13;;;;;;;;;;6291409;28;20291;-75
2023/04/18 05:00:24;;;;;;;1.87;1.87;;;;;;;;;;6291219;28;20297;-75
2023/04/18 05:03:31;;;;;;;2.00;2.00;;;;;;;;;;6306211;28;20447;-74
2023/04/18 05:06:39;;;;;;;1.90;1.80;;;;;;;;;;6317141;28;20218;-75
2023/04/18 05:09:45;;;;;;;1.80;1.80;;;;;;;;;;6333345;28;20299;-76
2023/04/18 05:12:50;;;;;;;4.70;2.17;;;;;;;;;;6291611;28;20265;-75
2023/04/18 05:15:55;;;;;;;1.90;1.67;;;;;;;;;;6309087;28;20541;-77
2023/04/18 05:19:02;;;;;;;2.17;1.90;;;;;;;;;;6290580;28;20289;-74
2023/04/18 05:22:07;;;;;;;2.10;2.10;;;;;;;;;;6307748;28;20463;-74
2023/04/18 05:25:13;;;;;;;2.73;1.80;;;;;;;;;;6308815;28;20296;-75
2023/04/18 05:28:18;;;;;;;2.03;2.03;;;;;;;;;;6308577;28;20303;-74
2023/04/18 05:31:23;;;;;;;2.57;2.30;;;;;;;;;;6309044;28;20289;-75
2023/04/18 05:34:30;;;;;;;2.83;2.10;;;;;;;;;;6308355;28;20308;-75
2023/04/18 05:37:35;;;;;;;1.83;1.73;;;;;;;;;;6310270;28;20291;-75
2023/04/18 05:40:42;;;;;;;2.10;2.00;;;;;;;;;;6312750;28;20376;-75
2023/04/18 05:43:47;;;;;;;2.20;2.10;;;;;;;;;;6312954;28;20623;-74
2023/04/18 05:47:08;;;;;;;1.73;1.73;;;;;;;;;;6311738;28;20291;-75
2023/04/18 05:50:15;;;;;;;2.17;2.03;;;;;;;;;;6312333;28;20299;-74
2023/04/18 05:53:20;;;;;;;3.30;2.33;;;;;;;;;;6312690;28;20295;-74
2023/04/18 05:56:25;;;;;;;1.97;1.97;;;;;;;;;;6313138;28;20301;-73
2023/04/18 05:59:31;;;;;;;3.80;2.30;;;;;;;;;;6312910;28;20301;-74
2023/04/18 06:02:35;;;;;;;6.63;2.30;;;;;;;;;;6319796;28;20497;-75
2023/04/18 06:05:42;;;;;;;2.10;2.00;;;;;;;;;;6337300;28;20294;-74
2023/04/18 06:08:47;;;;;;;2.40;2.30;;;;;;;;;;6337695;28;20288;-74
2023/04/18 06:11:53;;;;;;;2.77;2.10;;;;;;;;;;6355981;28;20289;-75
2023/04/18 06:14:58;;;;;;;2.13;2.13;;;;;;;;;;6362921;28;20296;-74
2023/04/18 06:18:03;;;;;;;5.33;2.23;;;;;;;;;;6362740;28;20304;-75
2023/04/18 06:21:10;;;;;;;3.53;2.00;;;;;;;;;;6362259;28;20296;-74
2023/04/18 06:24:15;;;;;;;4.50;1.97;;;;;;;;;;6362290;28;20447;-74
2023/04/18 06:27:20;;;;;;;2.00;1.80;;;;;;;;;;6363006;28;20591;-74
2023/04/18 06:30:36;;;;;;;3.90;1.57;;;;;;;;;;6343660;28;20300;-75
2023/04/18 06:33:41;;;;;;;5.30;2.10;;;;;;;;;;6363057;28;20293;-75
2023/04/18 06:36:48;;;;;;;2.93;1.80;;;;;;;;;;6363239;28;20290;-74
2023/04/18 06:39:53;;;;;;;4.35;1.77;;;;;;;;;;6361984;28;20457;-75
2023/04/18 06:42:58;;;;;;;5.45;2.05;;;;;;;;;;6363271;28;20289;-74
2023/04/18 06:46:04;;;;;;;2.85;2.00;;;;;;;;;;6362528;28;20288;-74
2023/04/18 06:49:09;;;;;;;2.45;1.92;;;;;;;;;;6364107;28;20285;-76
2023/04/18 06:52:16;;;;;;;2.00;1.90;;;;;;;;;;6369700;28;20286;-75
2023/04/18 06:55:21;;;;;;;2.20;1.88;;;;;;;;;;6369449;28;20292;-76
2023/04/18 06:58:26;;;;;;;1.75;1.75;;;;;;;;;;6345694;28;20289;-74
2023/04/18 07:01:32;;;;;;;5.35;2.03;;;;;;;;;;6361870;28;20297;-75
2023/04/18 07:04:38;;;;;;;1.77;1.67;;;;;;;;;;6336200;28;20301;-75
2023/04/18 07:07:44;;;;;;;2.30;1.77;;;;;;;;;;6336882;28;20294;-76
2023/04/18 07:10:49;;;;;;;2.00;1.90;;;;;;;;;;6334932;28;20590;-74
2023/04/18 07:13:55;;;;;;;3.53;2.00;;;;;;;;;;6335613;28;20309;-74
2023/04/18 07:17:00;;;;;;;3.30;1.92;;;;;;;;;;6336289;28;20286;-74
2023/04/18 07:20:06;;;;;;;1.80;1.63;;;;;;;;;;6335640;28;20317;-74
2023/04/18 07:23:13;;;;;;;1.98;1.77;;;;;;;;;;6335502;28;20332;-75
2023/04/18 07:26:18;;;;;;;1.67;1.63;;;;;;;;;;6336017;28;20286;-74
2023/04/18 07:29:24;;;;;;;5.35;1.85;;;;;;;;;;6334982;28;20293;-77
2023/04/18 07:32:29;;;;;;;2.25;1.83;;;;;;;;;;6335574;28;20286;-74
2023/04/18 07:35:34;;;;;;;5.53;2.00;;;;;;;;;;6335124;28;20294;-75
2023/04/18 07:38:41;;;;;;;8.13;1.80;;;;;;;;;;6335056;28;20298;-75
2023/04/18 07:41:46;;;;;;;10.57;2.70;;;;;;;;;;6335287;28;20285;-74
2023/04/18 07:44:55;;;;;;;7.65;2.58;;;;;;;;;;6334919;28;20301;-74
2023/04/18 07:48:00;;;;;;;4.03;1.70;;;;;;;;;;6334455;28;20298;-75
2023/04/18 07:51:06;;;;;;;1.85;1.50;;;;;;;;;;6334640;28;20289;-74
2023/04/18 07:54:14;;;;;;;3.53;1.85;;;;;;;;;;6334849;28;20531;-75
2023/04/18 07:57:20;;;;;;;3.30;1.50;;;;;;;;;;6335588;28;20289;-74
2023/04/18 08:00:25;;;;;;;1.95;1.40;;;;;;;;;;6334129;28;20498;-75
2023/04/18 08:03:32;;;;;;;6.00;1.80;;;;;;;;;;6329438;28;20464;-74
2023/04/18 08:06:37;;;;;;;2.83;1.70;;;;;;;;;;6308757;28;20267;-75
2023/04/18 08:09:44;;;;;;;2.78;1.60;;;;;;;;;;6309261;28;20431;-76
2023/04/18 08:12:49;;;;;;;4.03;1.85;;;;;;;;;;6334344;28;20262;-74
2023/04/18 08:15:56;;;;;;;6.28;1.85;;;;;;;;;;6334398;28;20285;-76
2023/04/18 08:19:01;;;;;;;5.90;1.67;;;;;;;;;;6333986;28;20293;-75
2023/04/18 08:22:10;;;;;;;6.97;2.30;;;;;;;;;;6334743;28;20585;-74
2023/04/18 08:25:17;;;;;;;4.22;1.75;;;;;;;;;;6334647;28;20290;-74
2023/04/18 08:28:22;;;;;;;5.22;1.60;;;;;;;;;;6333882;28;20574;-74
2023/04/18 08:31:27;;;;;;;11.93;1.75;;;;;;;;;;6334285;28;20290;-74
2023/04/18 08:34:35;;;;;;;3.40;1.48;;;;;;;;;;6333868;28;20298;-75
2023/04/18 08:37:40;;;;;;;1.65;1.35;;;;;;;;;;6316817;28;20542;-74
2023/04/18 08:40:47;;;;;;;11.05;1.75;;;;;;;;;;6333993;28;20293;-73
2023/04/18 08:43:52;;;;;;;3.30;1.35;;;;;;;;;;6333673;28;20286;-75
2023/04/18 08:47:01;;;;;;;1.45;1.20;;;;;;;;;;6334733;28;20285;-75
2023/04/18 08:50:08;;;;;;;3.10;1.38;;;;;;;;;;6315427;28;20302;-75
2023/04/18 08:53:13;;;;;;;3.53;2.03;;;;;;;;;;6333914;28;20297;-76
2023/04/18 08:56:21;;;;;;;3.75;1.55;;;;;;;;;;6334383;28;20308;-74
2023/04/18 08:59:26;;;;;;;5.10;1.35;;;;;;;;;;6333617;28;20305;-77
2023/04/18 09:02:41;;;;;;;1.67;1.27;;;;;;;;;;6334316;28;20294;-75
2023/04/18 09:06:08;;;;;;;2.92;1.48;;;;;;;;;;6333297;28;20306;-74
2023/04/18 09:09:14;;;;;;;1.60;1.45;;;;;;;;;;6333802;28;20464;-74
2023/04/18 09:12:22;;;;;;;5.65;1.40;;;;;;;;;;6316053;28;20287;-75
2023/04/18 09:15:29;;;;;;;9.50;1.85;;;;;;;;;;6314205;28;20290;-76
2023/04/18 09:18:34;;;;;;;2.00;1.48;;;;;;;;;;6312412;28;20293;-74
2023/04/18 09:21:45;;;;;;;1.60;1.45;;;;;;;;;;6313402;28;20265;-75
2023/04/18 09:24:54;;;;;;;6.35;1.30;;;;;;;;;;6311913;28;20290;-73
2023/04/18 09:28:01;;;;;;;5.43;1.27;;;;;;;;;;6313838;28;20290;-74
2023/04/18 09:31:10;;;;;;;1.40;1.33;;;;;;;;;;6312317;28;20287;-75
2023/04/18 09:34:23;;;;;;;1.60;1.33;;;;;;;;;;6312662;28;20290;-73
2023/04/18 09:37:29;;;;;;;3.10;1.30;;;;;;;;;;6313729;28;20294;-74
2023/04/18 09:40:35;;;;;;;2.30;1.35;;;;;;;;;;6312905;28;20291;-74
2023/04/18 09:43:41;;;;;;;1.73;1.27;;;;;;;;;;6312686;28;20578;-75
2023/04/18 09:46:48;;;;;;;6.15;1.25;;;;;;;;;;6313528;28;20301;-75
2023/04/18 09:49:53;;;;;;;2.75;0.95;;;;;;;;;;6316526;28;20293;-73
2023/04/18 09:52:59;;;;;;;7.78;1.25;;;;;;;;;;6314457;28;20294;-73
2023/04/18 09:56:07;;;;;;;7.72;1.30;;;;;;;;;;6312722;28;20302;-74
2023/04/18 09:59:15;;;;;;;1.27;1.08;;;;;;;;;;6312503;28;20479;-74
2023/04/18 10:02:23;;;;;;;5.85;1.25;;;;;;;;;;6323301;28;20305;-74
2023/04/18 10:05:31;;;;;;;7.95;1.40;;;;;;;;;;6363476;28;20297;-74
2023/04/18 10:08:36;;;;;;;4.47;1.20;;;;;;;;;;6362808;28;20281;-73
2023/04/18 10:11:42;;;;;;;4.82;1.00;;;;;;;;;;6354134;28;20281;-75
2023/04/18 10:14:48;;;;;;;0.98;0.90;;;;;;;;;;6362309;28;20297;-74
2023/04/18 10:17:55;;;;;;;1.10;1.10;;;;;;;;;;6362324;28;20304;-75
2023/04/18 10:21:05;;;;;;;2.15;1.10;;;;;;;;;;6362813;28;20297;-74
2023/04/18 10:24:48;;;;;;;1.92;1.10;;;;;;;;;;6361395;28;20289;-74
2023/04/18 10:28:00;;;;;;;3.70;1.20;;;;;;;;;;6343375;28;20305;-75
2023/04/18 10:31:07;;;;;;;5.20;1.20;;;;;;;;;;6362658;28;20301;-75
2023/04/18 10:34:16;;;;;;;1.45;1.20;;;;;;;;;;6362570;28;20285;-75
2023/04/18 10:37:22;;;;;;;2.33;1.20;;;;;;;;;;6363147;28;20289;-74
2023/04/18 10:40:33;;;;;;;1.17;1.10;;;;;;;;;;6362067;28;20605;-74
2023/04/18 10:44:13;;;;;;;3.42;1.27;;;;;;;;;;6363033;28;20577;-75
2023/04/18 10:47:23;;;;;;;3.42;1.20;;;;;;;;;;6362550;28;20582;-76
2023/04/18 10:50:28;;;;;;;4.57;1.08;;;;;;;;;;6343833;28;20542;-76
2023/04/18 10:53:34;;;;;;;1.38;1.20;;;;;;;;;;6361785;28;20289;-75
2023/04/18 10:56:39;;;;;;;4.13;1.00;;;;;;;;;;6362492;28;20293;-75
2023/04/18 10:59:48;;;;;;;5.00;1.15;;;;;;;;;;6361216;28;20296;-75
2023/04/18 11:02:56;;;;;;;2.40;1.08;;;;;;;;;;6360995;28;20310;-75
2023/04/18 11:06:02;;;;;;;1.02;0.80;;;;;;;;;;6361191;28;20285;-75
2023/04/18 11:09:12;;;;;;;2.30;1.00;;;;;;;;;;6342957;28;20305;-75
2023/04/18 11:12:17;;;;;;;6.47;0.98;;;;;;;;;;6360880;28;20285;-74
2023/04/18 11:15:24;;;;;;;5.40;1.00;;;;;;;;;;6360249;28;20294;-74
2023/04/18 11:18:41;;;;;;;1.05;0.98;;;;;;;;;;6360867;28;20289;-76
2023/04/18 11:21:46;;;;;;;3.63;0.77;;;;;;;;;;6360083;28;20284;-74
2023/04/18 11:24:52;;;;;;;2.10;0.95;;;;;;;;;;6360370;28;20296;-74
2023/04/18 11:28:00;;;;;;;2.28;0.90;;;;;;;;;;6342718;28;20285;-76
2023/04/18 11:31:05;;;;;;;8.88;1.08;;;;;;;;;;6360769;28;20289;-75
2023/04/18 11:34:13;;;;;;;2.22;1.00;;;;;;;;;;6360543;28;20310;-76
2023/04/18 11:37:19;;;;;;;1.00;1.00;;;;;;;;;;6360456;28;20289;-74
2023/04/18 11:40:25;;;;;;;1.25;0.90;;;;;;;;;;6360116;28;20377;-74
2023/04/18 11:43:30;;;;;;;3.15;1.00;;;;;;;;;;6359868;28;20293;-75
2023/04/18 11:46:39;;;;;;;2.70;1.00;;;;;;;;;;6360571;28;20292;-75
2023/04/18 11:49:45;;;;;;;1.33;0.90;;;;;;;;;;6360597;28;20293;-74
2023/04/18 11:52:51;;;;;;;1.90;1.20;;;;;;;;;;6360845;28;20296;-74
2023/04/18 11:55:57;;;;;;;2.28;1.13;;;;;;;;;;6360069;28;20289;-76
2023/04/18 11:59:09;;;;;;;3.00;1.17;;;;;;;;;;6360155;28;20288;-75
2023/04/18 12:02:14;;;;;;;1.98;0.95;;;;;;;;;;6351503;28;20308;-74
2023/04/18 12:05:29;;;;;;;0.93;0.93;;;;;;;;;;6360590;28;20288;-75
2023/04/18 12:08:35;;;;;;;1.10;0.90;;;;;;;;;;6360312;28;20289;-76
2023/04/18 12:11:42;;;;;;;3.35;1.10;;;;;;;;;;6351218;28;20297;-76
2023/04/18 12:14:47;;;;;;;1.13;1.13;;;;;;;;;;6359966;28;20289;-77
2023/04/18 12:17:52;;;;;;;1.00;0.93;;;;;;;;;;6360271;28;20285;-76
2023/04/18 12:21:00;;;;;;;2.15;1.30;;;;;;;;;;6359786;28;20293;-75
2023/04/18 12:24:15;;;;;;;3.55;1.10;;;;;;;;;;6359804;28;20395;-75
2023/04/18 12:27:20;;;;;;;2.40;1.08;;;;;;;;;;6360415;28;20289;-75
2023/04/18 12:30:27;;;;;;;1.65;1.00;;;;;;;;;;6359148;28;20298;-74
2023/04/18 12:33:32;;;;;;;1.00;1.00;;;;;;;;;;6358395;28;20288;-75
2023/04/18 12:36:39;;;;;;;4.20;0.98;;;;;;;;;;6359817;28;20265;-75
2023/04/18 12:39:44;;;;;;;1.98;0.90;;;;;;;;;;6359153;28;20308;-75
2023/04/18 12:42:50;;;;;;;6.13;1.10;;;;;;;;;;6341365;28;20589;-75
2023/04/18 12:45:55;;;;;;;2.45;0.85;;;;;;;;;;6358779;28;20288;-76
2023/04/18 12:49:01;;;;;;;3.03;0.80;;;;;;;;;;6359230;28;20293;-76
2023/04/18 12:52:07;;;;;;;7.32;1.08;;;;;;;;;;6359766;28;20301;-75
2023/04/18 12:55:13;;;;;;;0.85;0.70;;;;;;;;;;6359112;28;20304;-75
2023/04/18 12:58:19;;;;;;;0.70;0.70;;;;;;;;;;6340824;28;20288;-76
2023/04/18 13:01:25;;;;;;;1.48;0.88;;;;;;;;;;6354832;28;20301;-76
2023/04/18 13:04:30;;;;;;;2.15;1.00;;;;;;;;;;6355705;28;20571;-75
2023/04/18 13:07:39;;;;;;;0.70;0.70;;;;;;;;;;6359673;28;20289;-75
2023/04/18 13:10:46;;;;;;;4.18;0.80;;;;;;;;;;6350301;28;20288;-74
2023/04/18 13:13:51;;;;;;;2.63;0.80;;;;;;;;;;6359318;28;20292;-75
2023/04/18 13:16:56;;;;;;;5.18;0.80;;;;;;;;;;6359414;28;20289;-74
2023/04/18 13:20:03;;;;;;;1.38;0.93;;;;;;;;;;6358557;28;20301;-74
2023/04/18 13:23:10;;;;;;;2.08;0.80;;;;;;;;;;6358836;28;20293;-75
2023/04/18 13:26:15;;;;;;;1.45;0.70;;;;;;;;;;6341602;28;20289;-75
2023/04/18 13:29:20;;;;;;;1.85;0.73;;;;;;;;;;6358775;28;20293;-74
2023/04/18 13:32:25;;;;;;;4.70;1.00;;;;;;;;;;6359536;28;20289;-76
2023/04/18 13:35:31;;;;;;;3.65;1.08;;;;;;;;;;6358883;28;20292;-75
2023/04/18 13:38:37;;;;;;;4.68;0.82;;;;;;;;;;6358576;28;20289;-74
2023/04/18 13:41:43;;;;;;;2.22;0.80;;;;;;;;;;6358989;28;20285;-75
2023/04/18 13:44:48;;;;;;;4.63;0.85;;;;;;;;;;6340916;28;20293;-76
2023/04/18 13:47:54;;;;;;;1.92;0.80;;;;;;;;;;6341193;28;20364;-75
2023/04/18 13:50:59;;;;;;;3.17;0.70;;;;;;;;;;6358360;28;20485;-76
2023/04/18 13:54:06;;;;;;;5.10;0.82;;;;;;;;;;6358240;28;20312;-74
2023/04/18 13:57:11;;;;;;;2.53;1.05;;;;;;;;;;6359047;28;20309;-74
2023/04/18 14:00:18;;;;;;;6.22;0.90;;;;;;;;;;6362166;28;20293;-75
2023/04/18 14:03:23;;;;;;;0.82;0.82;;;;;;;;;;6353683;28;20448;-75
2023/04/18 14:06:29;;;;;;;5.18;1.00;;;;;;;;;;6363625;28;20288;-76
2023/04/18 14:09:35;;;;;;;1.70;1.50;;;;;;;;;;6361776;28;20305;-76
2023/04/18 14:12:41;;;;;;;2.85;1.10;;;;;;;;;;6352844;28;20265;-76
2023/04/18 14:15:47;;;;;;;3.92;1.00;;;;;;;;;;6362294;28;20301;-74
2023/04/18 14:18:52;;;;;;;1.23;1.23;;;;;;;;;;6362787;28;20305;-75
2023/04/18 14:21:57;;;;;;;0.70;0.70;;;;;;;;;;6362548;28;20324;-76
2023/04/18 14:25:05;;;;;;;9.93;1.30;;;;;;;;;;6362527;28;20301;-75
2023/04/18 14:28:12;;;;;;;4.75;0.98;;;;;;;;;;6362015;28;20297;-75
2023/04/18 14:31:18;;;;;;;2.03;0.73;;;;;;;;;;6363086;28;20288;-76
2023/04/18 14:34:23;;;;;;;1.00;0.80;;;;;;;;;;6362149;28;20285;-75
2023/04/18 14:37:28;;;;;;;2.10;0.70;;;;;;;;;;6362351;28;20297;-75
2023/04/18 14:40:35;;;;;;;4.15;0.73;;;;;;;;;;6361834;28;20469;-74
2023/04/18 14:43:40;;;;;;;2.88;0.80;;;;;;;;;;6361694;28;20292;-75
2023/04/18 14:46:45;;;;;;;5.15;1.45;;;;;;;;;;6362689;28;20320;-75
2023/04/18 14:49:50;;;;;;;4.63;1.15;;;;;;;;;;6362038;28;20420;-76
2023/04/18 14:52:55;;;;;;;1.95;1.00;;;;;;;;;;6362406;28;20304;-75
2023/04/18 14:56:02;;;;;;;0.95;0.95;;;;;;;;;;6361711;28;20288;-75
2023/04/18 14:59:07;;;;;;;7.13;0.88;;;;;;;;;;6361718;28;20289;-76
2023/04/18 15:02:12;;;;;;;2.92;0.88;;;;;;;;;;6353607;28;20330;-75
2023/04/18 15:05:18;;;;;;;4.15;0.75;;;;;;;;;;6343172;28;20364;-74
2023/04/18 15:08:23;;;;;;;3.05;0.95;;;;;;;;;;6360867;28;20593;-74
2023/04/18 15:11:30;;;;;;;4.20;1.23;;;;;;;;;;6351358;28;20281;-75
2023/04/18 15:14:36;;;;;;;3.88;1.10;;;;;;;;;;6343091;28;20285;-75
2023/04/18 15:17:41;;;;;;;1.65;0.80;;;;;;;;;;6361203;28;20444;-74
2023/04/18 15:20:46;;;;;;;2.33;1.02;;;;;;;;;;6360613;28;20585;-75
2023/04/18 15:23:51;;;;;;;2.58;0.73;;;;;;;;;;6342315;28;20289;-75
2023/04/18 15:26:58;;;;;;;2.38;1.00;;;;;;;;;;6361327;28;20297;-74
2023/04/18 15:30:03;;;;;;;0.80;0.80;;;;;;;;;;6360519;28;20293;-75
2023/04/18 15:33:12;;;;;;;3.75;1.40;;;;;;;;;;6360955;28;20307;-74
2023/04/18 15:36:17;;;;;;;0.90;0.90;;;;;;;;;;6361240;28;20284;-75
2023/04/18 15:39:22;;;;;;;2.22;1.00;;;;;;;;;;6360520;28;20298;-74
2023/04/18 15:42:30;;;;;;;2.38;0.88;;;;;;;;;;6360787;28;20289;-73
2023/04/18 15:45:36;;;;;;;2.40;0.85;;;;;;;;;;6359860;28;20301;-75
2023/04/18 15:48:41;;;;;;;0.80;0.80;;;;;;;;;;6360469;28;20293;-75
2023/04/18 15:51:46;;;;;;;0.95;0.80;;;;;;;;;;6360766;28;20265;-75
2023/04/18 15:54:51;;;;;;;0.80;0.80;;;;;;;;;;6360398;28;20297;-76
2023/04/18 15:57:58;;;;;;;2.90;0.70;;;;;;;;;;6342867;28;20286;-76
2023/04/18 16:01:04;;;;;;;5.03;0.95;;;;;;;;;;6340514;28;20378;-75
2023/04/18 16:04:12;;;;;;;0.80;0.80;;;;;;;;;;6354056;28;20609;-76
2023/04/18 16:07:17;;;;;;;9.30;0.70;;;;;;;;;;6360640;28;20324;-77
2023/04/18 16:10:23;;;;;;;1.05;0.73;;;;;;;;;;6336234;28;20285;-75
2023/04/18 16:13:29;;;;;;;5.53;1.10;;;;;;;;;;6356496;28;20572;-75
2023/04/18 16:16:35;;;;;;;3.95;1.27;;;;;;;;;;6360694;28;20293;-76
2023/04/18 16:19:40;;;;;;;3.58;0.95;;;;;;;;;;6359505;28;20296;-75
2023/04/18 16:22:45;;;;;;;3.97;1.67;;;;;;;;;;6341507;28;20525;-75
2023/04/18 16:25:53;;;;;;;4.28;0.90;;;;;;;;;;6342049;28;20300;-75
2023/04/18 16:29:00;;;;;;;3.95;1.10;;;;;;;;;;6359845;28;20305;-75
2023/04/18 16:32:07;;;;;;;7.28;1.38;;;;;;;;;;6359965;28;20301;-75
2023/04/18 16:35:12;;;;;;;5.72;1.10;;;;;;;;;;6359752;28;20309;-74
2023/04/18 16:38:17;;;;;;;5.88;0.90;;;;;;;;;;6359389;28;20289;-75
2023/04/18 16:41:25;;;;;;;1.52;0.95;;;;;;;;;;6360049;28;20443;-74
2023/04/18 16:44:32;;;;;;;3.10;0.80;;;;;;;;;;6358480;28;20305;-75
2023/04/18 16:47:37;;;;;;;1.65;0.82;;;;;;;;;;6360401;28;20459;-75
2023/04/18 16:50:44;;;;;;;0.75;0.75;;;;;;;;;;6359585;28;20453;-75
2023/04/18 16:53:49;;;;;;;6.72;0.90;;;;;;;;;;6359205;28;20580;-76
2023/04/18 16:56:54;;;;;;;0.95;0.90;;;;;;;;;;6359702;28;20289;-75
2023/04/18 17:00:01;;;;;;;4.90;0.80;;;;;;;;;;6359082;28;20289;-76
2023/04/18 17:03:08;;;;;;;0.60;0.60;;;;;;;;;;6350651;28;20497;-76
2023/04/18 17:06:15;;;;;;;1.67;0.80;;;;;;;;;;6358677;28;20294;-76
2023/04/18 17:09:21;;;;;;;0.60;0.60;;;;;;;;;;6359376;28;20312;-75
2023/04/18 17:12:26;;;;;;;1.38;0.80;;;;;;;;;;6349289;28;20289;-75
2023/04/18 17:15:33;;;;;;;1.30;0.80;;;;;;;;;;6358944;28;20305;-76
2023/04/18 17:18:38;;;;;;;1.45;0.70;;;;;;;;;;6358901;28;20299;-76
2023/04/18 17:21:43;;;;;;;1.63;1.45;;;;;;;;;;6360136;28;20349;-75
2023/04/18 17:24:48;;;;;;;1.15;1.10;;;;;;;;;;6359302;28;20317;-75
2023/04/18 17:27:53;;;;;;;1.00;1.00;;;;;;;;;;6359984;28;20293;-76
2023/04/18 17:31:00;;;;;;;2.92;1.02;;;;;;;;;;6359482;28;20293;-75
2023/04/18 17:34:06;;;;;;;0.95;0.85;;;;;;;;;;6345059;28;20293;-76
2023/04/18 17:37:11;;;;;;;0.98;0.80;;;;;;;;;;6364322;28;20293;-75
2023/04/18 17:40:17;;;;;;;1.08;0.90;;;;;;;;;;6364303;28;20300;-76
2023/04/18 17:43:22;;;;;;;1.55;1.25;;;;;;;;;;6363453;28;20313;-75
2023/04/18 17:46:29;;;;;;;0.75;0.75;;;;;;;;;;6364583;28;20249;-75
2023/04/18 17:49:34;;;;;;;2.63;0.88;;;;;;;;;;6364512;28;20292;-76
2023/04/18 17:52:41;;;;;;;0.82;0.70;;;;;;;;;;6364462;28;20284;-77
2023/04/18 17:55:49;;;;;;;1.48;0.90;;;;;;;;;;6364204;28;20292;-75
2023/04/18 17:58:54;;;;;;;0.85;0.85;;;;;;;;;;6363901;28;20444;-76
2023/04/18 18:02:02;;;;;;;0.88;0.80;;;;;;;;;;6355718;28;20289;-77
2023/04/18 18:05:09;;;;;;;2.67;0.80;;;;;;;;;;6345743;28;20289;-75
2023/04/18 18:08:16;;;;;;;1.02;0.82;;;;;;;;;;6345411;28;20290;-75
2023/04/18 18:11:21;;;;;;;0.70;0.70;;;;;;;;;;6354232;28;20286;-75
2023/04/18 18:14:27;;;;;;;0.88;0.88;;;;;;;;;;6363950;28;20481;-75
2023/04/18 18:17:34;;;;;;;0.93;0.90;;;;;;;;;;6363921;28;20296;-74
2023/04/18 18:20:42;;;;;;;1.00;1.00;;;;;;;;;;6363593;28;20296;-76
2023/04/18 18:23:47;;;;;;;0.82;0.82;;;;;;;;;;6363040;28;20477;-77
2023/04/18 18:26:52;;;;;;;2.30;1.45;;;;;;;;;;6337361;28;20290;-76
2023/04/18 18:29:57;;;;;;;1.10;1.10;;;;;;;;;;6344814;28;20305;-74
2023/04/18 18:33:04;;;;;;;1.17;0.80;;;;;;;;;;6363071;28;20306;-75
2023/04/18 18:36:10;;;;;;;2.05;0.88;;;;;;;;;;6362417;28;20288;-74
2023/04/18 18:39:16;;;;;;;1.00;1.00;;;;;;;;;;6362515;28;20293;-75